Time;durP1;ratioP1;P1;durP2;ratioP2;P2;SDS_P1;SDS_P2;PMS_P1;PMS_P2;Temp;Humidity;BMP_temperature;BMP_pressure;BME280_temperature;BME280_humidity;BME280_pressure;Samples;Min_cycle;Max_cycle;Signal;HPM_P1;HPM_P2
2024/01/30 00:07:43;;;;;;;54.60;24.20;;;;;;;3.89;88.12;101910.71;681652;1267;140821;-84
2024/01/30 00:22:52;;;;;;;49.80;23.80;;;;;;;3.98;87.16;101921.69;681457;1267;139230;-82
2024/01/30 00:37:57;;;;;;;53.90;25.10;;;;;;;3.80;87.25;101920.04;681943;1262;140304;-82
2024/01/30 00:53:04;;;;;;;47.80;21.00;;;;;;;3.70;87.06;101913.81;681589;1263;138999;-81
2024/01/30 01:08:11;;;;;;;50.10;22.20;;;;;;;3.53;87.21;101906.74;681792;1262;139129;-82
2024/01/30 01:23:19;;;;;;;55.30;22.70;;;;;;;3.56;87.22;101889.32;681560;1262;139067;-83
2024/01/30 01:38:25;;;;;;;41.70;20.30;;;;;;;3.51;87.85;101874.77;681706;1263;140415;-82
2024/01/30 01:53:33;;;;;;;43.40;18.90;;;;;;;3.58;86.78;101878.18;681647;1265;140041;-82
2024/01/30 02:08:41;;;;;;;45.00;20.60;;;;;;;3.44;86.80;101870.01;681922;1264;139882;-82
2024/01/30 02:23:49;;;;;;;44.80;19.10;;;;;;;3.44;86.12;101871.74;681620;1265;140301;-82
2024/01/30 02:38:55;;;;;;;45.90;21.00;;;;;;;3.35;86.06;101878.08;681800;1262;139908;-82
2024/01/30 02:54:02;;;;;;;30.80;14.20;;;;;;;3.24;86.36;101874.27;681582;1263;139163;-81
2024/01/30 03:09:10;;;;;;;42.00;18.80;;;;;;;3.27;86.15;101871.41;681461;1265;140667;-82
2024/01/30 03:24:15;;;;;;;59.80;25.60;;;;;;;3.23;85.78;101871.72;681636;1267;139730;-82
2024/01/30 03:39:21;;;;;;;76.60;33.20;;;;;;;3.08;86.25;101876.50;681729;1263;139420;-83
2024/01/30 03:54:27;;;;;;;50.90;26.30;;;;;;;3.05;86.77;101866.41;681343;1267;140443;-82
2024/01/30 04:09:35;;;;;;;47.50;17.80;;;;;;;3.01;86.16;101867.05;681426;1265;139242;-82
2024/01/30 04:24:43;;;;;;;36.70;20.00;;;;;;;2.93;86.44;101865.75;681746;1265;140113;-80
2024/01/30 04:39:49;;;;;;;39.10;18.50;;;;;;;2.92;86.45;101847.61;681467;1265;141090;-81
2024/01/30 04:54:55;;;;;;;;;;;;;;;2.95;86.75;101847.17;681620;1267;139480;-82
2024/01/30 05:10:00;;;;;;;46.30;19.10;;;;;;;2.88;87.83;101839.46;681492;1265;125306;-82
2024/01/30 05:25:10;;;;;;;37.90;19.30;;;;;;;2.94;87.49;101836.50;681553;1265;141460;-83
2024/01/30 05:40:17;;;;;;;47.00;20.40;;;;;;;2.89;87.45;101842.70;681455;1263;140535;-81
2024/01/30 05:55:22;;;;;;;42.00;20.90;;;;;;;2.81;87.79;101830.69;681872;1267;139916;-81
2024/01/30 06:10:30;;;;;;;;;;;;;;;2.78;87.81;101839.58;681509;1262;140533;-81
2024/01/30 06:25:38;;;;;;;43.40;19.20;;;;;;;2.88;87.37;101850.16;681491;1266;126707;-82
2024/01/30 06:40:44;;;;;;;46.10;23.50;;;;;;;2.94;86.64;101843.59;681370;1265;140169;-82
2024/01/30 06:55:50;;;;;;;;;;;;;;;2.91;87.67;101845.73;681813;1265;140444;-80
2024/01/30 07:10:57;;;;;;;44.30;22.50;;;;;;;3.02;87.67;101855.25;681631;1266;127009;-81
2024/01/30 07:26:09;;;;;;;46.10;21.40;;;;;;;3.20;87.71;101857.13;680874;1268;721804;-81
2024/01/30 07:41:16;;;;;;;281.80;132.00;;;;;;;3.36;87.27;101860.58;681567;1265;140245;-82
2024/01/30 07:56:23;;;;;;;76.80;28.80;;;;;;;3.59;86.77;101851.36;681617;1265;139166;-82
2024/01/30 08:11:31;;;;;;;54.40;25.20;;;;;;;4.00;86.21;101850.78;681545;1266;139769;-82
2024/01/30 08:26:39;;;;;;;70.00;28.40;;;;;;;4.78;84.54;101856.89;681474;1265;140848;-83
2024/01/30 08:41:47;;;;;;;45.20;21.00;;;;;;;5.77;81.77;101857.46;681373;1265;140423;-84
2024/01/30 08:56:56;;;;;;;38.50;18.80;;;;;;;6.08;78.42;101858.94;681520;1266;140697;-84
2024/01/30 09:12:06;;;;;;;37.30;17.70;;;;;;;6.96;76.87;101860.98;681472;1266;140705;-85
2024/01/30 09:27:21;;;;;;;32.90;17.60;;;;;;;8.47;73.64;101856.55;681637;1266;139140;-85
2024/01/30 09:42:37;;;;;;;35.00;16.90;;;;;;;8.12;69.28;101846.01;681598;1266;139870;-85
2024/01/30 09:57:44;;;;;;;38.10;17.80;;;;;;;7.39;69.36;101836.99;681327;1267;139873;-85
2024/01/30 10:12:52;;;;;;;37.90;19.00;;;;;;;8.49;69.78;101829.17;681685;1269;140828;-83
2024/01/30 10:28:00;;;;;;;;;;;;;;;10.66;68.56;101815.05;681391;1268;139730;-83
2024/01/30 10:43:11;;;;;;;34.30;17.90;;;;;;;11.48;63.46;101804.30;681642;1266;126374;-84
2024/01/30 10:58:20;;;;;;;32.10;16.40;;;;;;;12.11;60.94;101785.42;681551;1266;140173;-84
2024/01/30 11:13:31;;;;;;;25.10;15.40;;;;;;;11.16;59.86;101773.52;681607;1269;139748;-85
2024/01/30 11:28:39;;;;;;;29.60;16.20;;;;;;;10.60;59.43;101757.17;681545;1266;139733;-84
2024/01/30 11:43:53;;;;;;;28.30;15.60;;;;;;;10.51;59.63;101749.93;681343;1264;138957;-84
2024/01/30 11:59:01;;;;;;;30.10;16.10;;;;;;;10.64;59.58;101736.48;681254;1263;139671;-83
2024/01/30 12:14:08;;;;;;;30.40;14.40;;;;;;;10.59;60.16;101737.50;681440;1263;140225;-83
2024/01/30 12:29:19;;;;;;;37.10;16.60;;;;;;;10.10;60.70;101717.18;681612;1263;139985;-83
2024/01/30 12:44:26;;;;;;;86.40;35.30;;;;;;;9.38;61.91;101704.81;681383;1266;138578;-83
2024/01/30 12:59:34;;;;;;;28.40;15.20;;;;;;;9.16;63.36;101697.89;681505;1266;139743;-84
2024/01/30 13:14:43;;;;;;;31.20;16.40;;;;;;;9.00;63.91;101682.11;681788;1265;139423;-83
2024/01/30 13:29:49;;;;;;;88.20;41.20;;;;;;;9.05;64.19;101664.73;681717;1263;140201;-84
2024/01/30 13:44:58;;;;;;;49.90;28.80;;;;;;;9.02;64.91;101649.39;681884;1263;139208;-84
2024/01/30 14:00:07;;;;;;;;;;;;;;;8.70;64.79;101644.43;681678;1262;139775;-83
2024/01/30 14:15:21;;;;;;;61.10;34.50;;;;;;;8.70;65.52;101637.63;681654;1264;126404;-83
2024/01/30 14:30:35;;;;;;;56.10;30.70;;;;;;;8.50;66.11;101632.48;681408;1264;140958;-84
2024/01/30 14:45:42;;;;;;;126.60;71.90;;;;;;;8.28;66.70;101630.77;681362;1262;139742;-85
2024/01/30 15:00:49;;;;;;;31.40;15.30;;;;;;;8.04;67.11;101634.00;681345;1262;140767;-84
2024/01/30 15:15:56;;;;;;;29.90;15.20;;;;;;;7.89;67.20;101631.20;681581;1267;139006;-84
2024/01/30 15:31:03;;;;;;;48.40;20.50;;;;;;;7.50;67.74;101638.89;681336;1268;138944;-83
2024/01/30 15:46:11;;;;;;;33.70;16.20;;;;;;;6.79;70.26;101641.70;681236;1266;140658;-83
2024/01/30 16:01:17;;;;;;;40.50;19.30;;;;;;;6.39;72.34;101635.30;681510;1264;139488;-83
2024/01/30 16:16:23;;;;;;;240.90;99.60;;;;;;;6.13;74.25;101624.36;681587;1263;140585;-81
2024/01/30 16:31:30;;;;;;;35.80;18.00;;;;;;;6.08;74.44;101631.38;681675;1263;139298;-80
2024/01/30 16:46:39;;;;;;;75.80;28.30;;;;;;;6.02;74.76;101639.32;681451;1265;139343;-81
2024/01/30 17:01:51;;;;;;;74.10;31.50;;;;;;;5.94;76.14;101628.75;681559;1265;139014;-81
2024/01/30 17:17:02;;;;;;;124.50;52.80;;;;;;;5.82;76.83;101628.75;681592;1267;139671;-81
2024/01/30 17:32:18;;;;;;;70.80;27.60;;;;;;;5.88;76.07;101616.83;681577;1262;139285;-82
2024/01/30 17:47:26;;;;;;;85.80;38.80;;;;;;;5.65;77.29;101613.57;681318;1265;139931;-81
2024/01/30 18:02:35;;;;;;;82.40;32.40;;;;;;;5.55;76.94;101602.04;681251;1262;139319;-81
2024/01/30 18:17:42;;;;;;;46.80;21.40;;;;;;;5.65;77.77;101590.48;681583;1265;139963;-82
2024/01/30 18:32:50;;;;;;;43.50;20.30;;;;;;;5.70;78.22;101563.70;681531;1262;139203;-82
2024/01/30 18:47:57;;;;;;;47.60;20.60;;;;;;;5.66;78.33;101559.38;681304;1265;141177;-81
2024/01/30 19:03:05;;;;;;;42.30;19.60;;;;;;;5.62;77.96;101559.91;681570;1267;140391;-81
2024/01/30 19:18:14;;;;;;;45.90;21.50;;;;;;;5.56;78.33;101549.06;681335;1263;140264;-82
2024/01/30 19:33:21;;;;;;;43.40;19.70;;;;;;;5.57;78.13;101539.48;681289;1263;366343;-82
2024/01/30 19:48:28;;;;;;;44.20;20.70;;;;;;;5.62;77.83;101536.67;681330;1265;140570;-80
2024/01/30 20:03:34;;;;;;;;;;;;;;;5.75;76.79;101525.41;681526;1267;138998;-80
2024/01/30 20:18:44;;;;;;;81.90;32.20;;;;;;;5.64;77.04;101519.88;681517;1265;125605;-81
2024/01/30 20:33:52;;;;;;;43.00;19.30;;;;;;;5.43;76.85;101526.59;681406;1267;139361;-80
2024/01/30 20:48:59;;;;;;;57.10;27.60;;;;;;;5.36;77.18;101520.99;681347;1264;139026;-80
2024/01/30 21:04:05;;;;;;;50.90;23.70;;;;;;;5.27;77.95;101525.94;681273;1268;140221;-80
2024/01/30 21:19:12;;;;;;;45.90;20.80;;;;;;;5.37;77.85;101497.91;681464;1263;139547;-81
2024/01/30 21:34:18;;;;;;;43.90;19.60;;;;;;;5.23;79.24;101482.23;681140;1269;140555;-81
2024/01/30 21:49:26;;;;;;;42.60;19.10;;;;;;;5.30;79.25;101477.42;681164;1266;140415;-81
2024/01/30 22:04:33;;;;;;;52.50;23.30;;;;;;;5.32;79.11;101476.27;681458;1268;139069;-80
2024/01/30 22:19:40;;;;;;;39.70;18.90;;;;;;;5.40;78.86;101471.23;681405;1266;139052;-81
2024/01/30 22:34:46;;;;;;;50.30;20.40;;;;;;;5.31;78.72;101462.08;681078;1268;139915;-81
2024/01/30 22:49:53;;;;;;;88.60;32.20;;;;;;;5.14;78.46;101454.91;681184;1268;140589;-81
2024/01/30 23:05:04;;;;;;;139.50;43.00;;;;;;;4.81;78.31;101475.31;681319;1268;140763;-81
2024/01/30 23:20:12;;;;;;;49.80;22.70;;;;;;;4.68;79.26;101465.48;681459;1267;140592;-81
2024/01/30 23:35:18;;;;;;;50.70;22.80;;;;;;;4.81;78.95;101463.88;681428;1266;139179;-81
2024/01/30 23:50:24;;;;;;;49.90;21.10;;;;;;;4.79;80.19;101467.25;681379;1265;140823;-82
